Time,TemperatureF,DewpointF,PressureIn,WindDirection,WindDirectionDegrees,WindSpeedMPH,WindSpeedGustMPH,Humidity,HourlyPrecipIn,Conditions,Clouds,dailyrainin,SoftwareType,DateUTC
2013-02-28 00:00:00,32.2,27.3,30.03,NW,313,3.0,9.0,82,0.00,RA,,0.00,WeatherDisplay:10.37,2013-02-28 06:00:00,
2013-02-28 00:05:00,32.2,27.3,30.03,NW,312,5.0,14.0,82,0.00,RA,,0.00,WeatherDisplay:10.37,2013-02-28 06:05:00,
2013-02-28 00:15:00,32.3,27.4,30.03,NW,312,2.0,9.0,82,0.00,BKN,,0.00,WeatherDisplay:10.37,2013-02-28 06:15:00,
2013-02-28 00:20:00,32.3,27.4,30.03,NW,312,5.0,7.0,82,0.00,BKN,,0.00,WeatherDisplay:10.37,2013-02-28 06:20:00,
2013-02-28 00:25:00,32.3,27.4,30.03,NW,322,5.0,12.0,82,0.00,FEW,,0.00,WeatherDisplay:10.37,2013-02-28 06:25:00,
2013-02-28 00:35:00,32.3,27.4,30.03,NW,324,2.0,13.0,82,0.00,FEW,,0.00,WeatherDisplay:10.37,2013-02-28 06:35:00,
2013-02-28 00:40:00,32.3,27.4,30.03,NW,324,5.0,13.0,82,0.00,FEW,,0.00,WeatherDisplay:10.37,2013-02-28 06:40:00,
2013-02-28 00:45:00,32.3,27.4,30.03,NW,325,3.0,10.0,82,0.00,BKN,,0.00,WeatherDisplay:10.37,2013-02-28 06:45:00,
2013-02-28 00:55:00,32.2,27.3,30.03,NW,321,3.0,12.0,82,0.00,FEW,,0.00,WeatherDisplay:10.37,2013-02-28 06:55:00,
2013-02-28 01:00:00,32.2,27.3,30.03,NW,326,5.0,12.0,82,0.00,FEW,,0.00,WeatherDisplay:10.37,2013-02-28 07:00:00,
2013-02-28 01:10:00,32.0,27.2,30.03,NW,319,5.0,10.0,82,0.00,OVC,,0.00,WeatherDisplay:10.37,2013-02-28 07:10:00,
2013-02-28 01:20:00,31.9,27.3,30.03,NW,324,2.0,9.0,83,0.00,OVC,,0.00,WeatherDisplay:10.37,2013-02-28 07:20:00,
2013-02-28 01:25:00,31.9,27.3,30.03,NW,321,3.0,10.0,83,0.00,OVC,,0.00,WeatherDisplay:10.37,2013-02-28 07:25:00,
2013-02-28 01:30:00,31.7,27.2,30.03,NW,319,5.0,9.0,83,0.00,OVC,,0.00,WeatherDisplay:10.37,2013-02-28 07:30:00,
2013-02-28 01:35:00,31.7,26.9,30.03,NW,319,3.0,9.0,82,0.00,OVC,,0.00,WeatherDisplay:10.37,2013-02-28 07:35:00,
2013-02-28 01:40:00,31.7,27.1,30.03,NW,313,3.0,9.0,83,0.00,OVC,,0.00,WeatherDisplay:10.37,2013-02-28 07:40:00,
2013-02-28 01:45:00,31.6,27.0,30.03,NW,320,3.0,10.0,83,0.00,OVC,,0.00,WeatherDisplay:10.37,2013-02-28 07:45:00,
2013-02-28 01:55:00,31.6,27.0,30.03,NW,321,6.0,12.0,83,0.00,OVC,,0.00,WeatherDisplay:10.37,2013-02-28 07:55:00,
2013-02-28 02:00:00,31.5,26.6,30.03,NW,326,3.0,8.0,82,0.00,OVC,,0.00,WeatherDisplay:10.37,2013-02-28 08:00:00,
2013-02-28 02:10:00,31.4,26.6,30.04,NW,313,2.0,8.0,82,0.00,OVC,,0.00,WeatherDisplay:10.37,2013-02-28 08:10:00,
2013-02-28 02:15:00,31.3,26.4,30.04,NW,318,5.0,10.0,82,0.00,OVC,,0.00,WeatherDisplay:10.37,2013-02-28 08:15:00,
2013-02-28 02:20:00,31.3,26.4,30.04,NW,318,3.0,13.0,82,0.00,OVC,,0.00,WeatherDisplay:10.37,2013-02-28 08:20:00,
2013-02-28 02:25:00,31.3,26.4,30.03,NW,325,5.0,12.0,82,0.00,OVC,,0.00,WeatherDisplay:10.37,2013-02-28 08:25:00,
2013-02-28 02:35:00,31.2,26.3,30.04,NNW,337,1.0,9.0,82,0.00,OVC,,0.00,WeatherDisplay:10.37,2013-02-28 08:35:00,
2013-02-28 02:40:00,31.0,26.1,30.04,NNW,331,5.0,12.0,82,0.00,OVC,,0.00,WeatherDisplay:10.37,2013-02-28 08:40:00,
2013-02-28 02:45:00,31.0,26.1,30.04,NW,325,7.0,13.0,82,0.00,OVC,,0.00,WeatherDisplay:10.37,2013-02-28 08:45:00,
2013-02-28 02:55:00,31.0,26.1,30.04,NW,325,2.0,10.0,82,0.00,OVC,,0.00,WeatherDisplay:10.37,2013-02-28 08:55:00,
2013-02-28 03:00:00,30.9,26.0,30.04,NW,326,6.0,12.0,82,0.00,OVC,,0.00,WeatherDisplay:10.37,2013-02-28 09:00:00,
2013-02-28 03:05:00,30.9,26.0,30.04,NW,324,1.0,8.0,82,0.00,OVC,,0.00,WeatherDisplay:10.37,2013-02-28 09:05:00,
2013-02-28 03:10:00,30.9,26.1,30.04,NW,323,6.0,12.0,82,0.00,OVC,,0.00,WeatherDisplay:10.37,2013-02-28 09:10:00,
2013-02-28 03:20:00,30.8,25.9,30.05,NW,324,3.0,8.0,82,0.00,OVC,,0.00,WeatherDisplay:10.37,2013-02-28 09:20:00,
2013-02-28 03:30:00,30.6,25.8,30.05,NW,320,2.0,10.0,82,0.00,OVC,,0.00,WeatherDisplay:10.37,2013-02-28 09:30:00,
2013-02-28 03:35:00,30.6,25.7,30.05,NNW,330,3.0,8.0,82,0.00,OVC,,0.00,WeatherDisplay:10.37,2013-02-28 09:35:00,
2013-02-28 03:40:00,30.6,25.7,30.04,NNW,338,3.0,8.0,82,0.00,OVC,,0.00,WeatherDisplay:10.37,2013-02-28 09:40:00,
2013-02-28 03:45:00,30.4,25.6,30.05,NNW,330,3.0,10.0,82,0.00,OVC,,0.00,WeatherDisplay:10.37,2013-02-28 09:45:00,
2013-02-28 03:50:00,30.4,25.6,30.05,NW,323,3.0,10.0,82,0.00,OVC,,0.00,WeatherDisplay:10.37,2013-02-28 09:50:00,
2013-02-28 03:55:00,30.3,25.5,30.05,NW,325,2.0,12.0,82,0.00,OVC,,0.00,WeatherDisplay:10.37,2013-02-28 09:55:00,
2013-02-28 04:05:00,30.2,25.0,30.05,NNW,331,2.0,9.0,81,0.00,OVC,,0.00,WeatherDisplay:10.37,2013-02-28 10:05:00,
2013-02-28 04:10:00,30.0,24.9,30.05,NNW,327,5.0,13.0,81,0.00,OVC,,0.00,WeatherDisplay:10.37,2013-02-28 10:10:00,
2013-02-28 04:15:00,29.9,24.7,30.05,NW,324,5.0,12.0,81,0.00,OVC,,0.00,WeatherDisplay:10.37,2013-02-28 10:15:00,
2013-02-28 04:25:00,29.5,24.1,30.05,NNW,330,2.0,8.0,80,0.00,OVC,,0.00,WeatherDisplay:10.37,2013-02-28 10:25:00,
2013-02-28 04:35:00,29.4,24.3,30.06,NW,325,3.0,10.0,81,0.00,OVC,,0.00,WeatherDisplay:10.37,2013-02-28 10:35:00,
2013-02-28 04:40:00,29.3,23.9,30.06,NW,320,1.0,12.0,80,0.00,OVC,,0.00,WeatherDisplay:10.37,2013-02-28 10:40:00,
2013-02-28 04:45:00,29.5,24.1,30.06,NW,314,3.0,12.0,80,0.00,OVC,,0.00,WeatherDisplay:10.37,2013-02-28 10:45:00,
2013-02-28 04:50:00,29.5,24.4,30.06,NW,309,3.0,9.0,81,0.00,OVC,,0.00,WeatherDisplay:10.37,2013-02-28 10:50:00,
2013-02-28 04:55:00,29.5,24.4,30.06,NW,312,2.0,9.0,81,0.00,OVC,,0.00,WeatherDisplay:10.37,2013-02-28 10:55:00,
2013-02-28 05:00:00,29.5,24.1,30.06,NW,316,2.0,6.0,80,0.00,OVC,,0.00,WeatherDisplay:10.37,2013-02-28 11:00:00,
2013-02-28 05:05:00,29.5,24.4,30.07,NW,315,2.0,7.0,81,0.00,OVC,,0.00,WeatherDisplay:10.37,2013-02-28 11:05:00,
2013-02-28 05:10:00,29.4,24.3,30.07,NW,314,3.0,12.0,81,0.00,OVC,,0.00,WeatherDisplay:10.37,2013-02-28 11:10:00,
2013-02-28 05:20:00,29.4,24.6,30.08,NW,305,6.0,12.0,82,0.00,OVC,,0.00,WeatherDisplay:10.37,2013-02-28 11:20:00,
2013-02-28 05:25:00,29.2,24.1,30.08,WNW,303,6.0,17.0,81,0.00,OVC,,0.00,WeatherDisplay:10.37,2013-02-28 11:25:00,
2013-02-28 05:35:00,29.0,23.6,30.08,NW,326,3.0,12.0,80,0.00,OVC,,0.00,WeatherDisplay:10.37,2013-02-28 11:35:00,
2013-02-28 05:40:00,28.8,23.7,30.08,NNW,329,6.0,12.0,81,0.00,OVC,,0.00,WeatherDisplay:10.37,2013-02-28 11:40:00,
2013-02-28 05:50:00,28.6,23.5,30.08,NW,321,7.0,12.0,81,0.00,OVC,,0.00,WeatherDisplay:10.37,2013-02-28 11:50:00,
2013-02-28 06:00:00,28.5,23.7,30.09,NW,326,3.0,12.0,82,0.00,OVC,,0.00,WeatherDisplay:10.37,2013-02-28 12:00:00,
2013-02-28 06:05:00,28.3,23.5,30.09,NW,326,6.0,13.0,82,0.00,OVC,,0.00,WeatherDisplay:10.37,2013-02-28 12:05:00,
2013-02-28 06:15:00,28.2,23.1,30.09,NNW,328,3.0,12.0,81,0.00,OVC,,0.00,WeatherDisplay:10.37,2013-02-28 12:15:00,
2013-02-28 06:20:00,28.2,23.4,30.09,NNW,329,5.0,13.0,82,0.00,OVC,,0.00,WeatherDisplay:10.37,2013-02-28 12:20:00,
2013-02-28 06:30:00,28.2,23.4,30.10,NW,326,5.0,12.0,82,0.00,OVC,,0.00,WeatherDisplay:10.37,2013-02-28 12:30:00,
2013-02-28 06:35:00,28.2,23.4,30.10,NNW,330,5.0,9.0,82,0.00,OVC,,0.00,WeatherDisplay:10.37,2013-02-28 12:35:00,
2013-02-28 06:40:00,28.0,23.2,30.10,NNW,331,5.0,10.0,82,0.00,OVC,,0.00,WeatherDisplay:10.37,2013-02-28 12:40:00,
2013-02-28 06:45:00,28.0,23.2,30.10,NW,324,3.0,12.0,82,0.00,OVC,,0.00,WeatherDisplay:10.37,2013-02-28 12:45:00,
2013-02-28 06:50:00,28.0,23.5,30.10,NW,319,3.0,8.0,83,0.00,OVC,,0.00,WeatherDisplay:10.37,2013-02-28 12:50:00,
2013-02-28 06:55:00,28.0,23.5,30.11,NW,321,1.0,7.0,83,0.00,OVC,,0.00,WeatherDisplay:10.37,2013-02-28 12:55:00,
2013-02-28 07:05:00,28.0,23.5,30.11,NW,311,2.0,9.0,83,0.00,OVC,,0.00,WeatherDisplay:10.37,2013-02-28 13:05:00,
2013-02-28 07:10:00,28.0,23.5,30.11,NW,316,5.0,10.0,83,0.00,OVC,,0.00,WeatherDisplay:10.37,2013-02-28 13:10:00,
2013-02-28 07:20:00,28.0,23.5,30.11,NW,326,0.0,7.0,83,0.00,OVC,,0.00,WeatherDisplay:10.37,2013-02-28 13:20:00,
2013-02-28 07:25:00,28.0,23.5,30.12,NW,324,1.0,6.0,83,0.00,OVC,,0.00,WeatherDisplay:10.37,2013-02-28 13:25:00,
2013-02-28 07:30:00,28.0,23.8,30.12,NW,322,0.0,3.0,84,0.00,OVC,,0.00,WeatherDisplay:10.37,2013-02-28 13:30:00,
2013-02-28 07:35:00,28.0,23.8,30.12,NW,320,2.0,7.0,84,0.00,OVC,,0.00,WeatherDisplay:10.37,2013-02-28 13:35:00,
2013-02-28 07:40:00,28.0,23.8,30.12,NW,323,2.0,6.0,84,0.00,OVC,,0.00,WeatherDisplay:10.37,2013-02-28 13:40:00,
2013-02-28 07:50:00,28.0,24.1,30.12,NW,325,3.0,12.0,85,0.00,OVC,,0.00,WeatherDisplay:10.37,2013-02-28 13:50:00,
2013-02-28 07:55:00,28.0,23.5,30.12,NNW,340,1.0,7.0,83,0.00,OVC,,0.00,WeatherDisplay:10.37,2013-02-28 13:55:00,
2013-02-28 08:05:00,28.0,23.8,30.12,NW,326,1.0,9.0,84,0.00,OVC,,0.00,WeatherDisplay:10.37,2013-02-28 14:05:00,
2013-02-28 08:10:00,28.0,23.8,30.13,NNW,330,3.0,12.0,84,0.00,OVC,,0.00,WeatherDisplay:10.37,2013-02-28 14:10:00,
2013-02-28 08:15:00,28.2,24.2,30.12,NNW,332,3.0,7.0,85,0.00,OVC,,0.00,WeatherDisplay:10.37,2013-02-28 14:15:00,
2013-02-28 08:25:00,28.0,23.8,30.13,NNW,331,3.0,14.0,84,0.00,OVC,,0.00,WeatherDisplay:10.37,2013-02-28 14:25:00,
2013-02-28 08:30:00,28.0,23.8,30.13,NNW,330,8.0,12.0,84,0.00,OVC,,0.00,WeatherDisplay:10.37,2013-02-28 14:30:00,
2013-02-28 08:35:00,28.0,23.5,30.13,NNW,332,8.0,16.0,83,0.00,OVC,,0.00,WeatherDisplay:10.37,2013-02-28 14:35:00,
2013-02-28 08:40:00,28.0,23.5,30.13,NNW,334,7.0,18.0,83,0.00,OVC,,0.00,WeatherDisplay:10.37,2013-02-28 14:40:00,
2013-02-28 08:45:00,28.0,23.6,30.14,NNW,332,6.0,16.0,83,0.00,OVC,,0.00,WeatherDisplay:10.37,2013-02-28 14:45:00,
2013-02-28 08:50:00,28.0,23.5,30.14,NNW,331,7.0,17.0,83,0.00,OVC,,0.00,WeatherDisplay:10.37,2013-02-28 14:50:00,
2013-02-28 08:55:00,28.1,23.6,30.14,NNW,335,3.0,13.0,83,0.00,OVC,,0.00,WeatherDisplay:10.37,2013-02-28 14:55:00,
2013-02-28 09:00:00,28.3,23.8,30.14,NNW,335,6.0,12.0,83,0.00,OVC,,0.00,WeatherDisplay:10.37,2013-02-28 15:00:00,
2013-02-28 09:05:00,28.3,23.5,30.14,NW,325,6.0,9.0,82,0.00,OVC,,0.00,WeatherDisplay:10.37,2013-02-28 15:05:00,
2013-02-28 09:10:00,28.5,24.0,30.14,NNW,330,3.0,10.0,83,0.00,OVC,,0.00,WeatherDisplay:10.37,2013-02-28 15:10:00,
2013-02-28 09:20:00,28.5,24.0,30.14,NW,323,3.0,8.0,83,0.00,OVC,,0.00,WeatherDisplay:10.37,2013-02-28 15:20:00,
2013-02-28 09:25:00,28.5,24.0,30.14,NNW,331,6.0,12.0,83,0.00,OVC,,0.00,WeatherDisplay:10.37,2013-02-28 15:25:00,
2013-02-28 09:30:00,28.5,24.0,30.14,NNW,328,2.0,10.0,83,0.00,OVC,,0.00,WeatherDisplay:10.37,2013-02-28 15:30:00,
2013-02-28 09:35:00,28.6,24.1,30.14,NNW,330,3.0,12.0,83,0.00,OVC,,0.00,WeatherDisplay:10.37,2013-02-28 15:35:00,
2013-02-28 09:40:00,28.7,24.2,30.14,NNW,339,2.0,12.0,83,0.00,OVC,,0.00,WeatherDisplay:10.37,2013-02-28 15:40:00,
2013-02-28 09:45:00,28.8,24.3,30.15,NNW,332,6.0,12.0,83,0.00,OVC,,0.00,WeatherDisplay:10.37,2013-02-28 15:45:00,
2013-02-28 09:50:00,28.9,24.1,30.15,NW,325,3.0,12.0,82,0.00,OVC,,0.00,WeatherDisplay:10.37,2013-02-28 15:50:00,
2013-02-28 10:00:00,29.4,24.6,30.15,NW,320,6.0,13.0,82,0.00,OVC,,0.00,WeatherDisplay:10.37,2013-02-28 16:00:00,
2013-02-28 10:10:00,29.5,24.4,30.15,NW,323,6.0,13.0,81,0.00,OVC,,0.00,WeatherDisplay:10.37,2013-02-28 16:10:00,
2013-02-28 10:20:00,29.8,24.7,30.15,NNW,328,2.0,9.0,81,0.00,OVC,,0.00,WeatherDisplay:10.37,2013-02-28 16:20:00,
2013-02-28 10:30:00,30.4,25.3,30.15,NNW,341,6.0,12.0,81,0.00,OVC,,0.00,WeatherDisplay:10.37,2013-02-28 16:30:00,
2013-02-28 10:40:00,30.3,24.9,30.15,NW,324,5.0,9.0,80,0.00,OVC,,0.00,WeatherDisplay:10.37,2013-02-28 16:40:00,
2013-02-28 10:50:00,30.3,24.9,30.15,NNW,336,3.0,10.0,80,0.00,OVC,,0.00,WeatherDisplay:10.37,2013-02-28 16:50:00,
2013-02-28 10:55:00,30.4,25.0,30.15,NNW,327,5.0,10.0,80,0.00,OVC,,0.00,WeatherDisplay:10.37,2013-02-28 16:55:00,
2013-02-28 11:00:00,30.4,25.0,30.15,NNW,329,3.0,10.0,80,0.00,OVC,,0.00,WeatherDisplay:10.37,2013-02-28 17:00:00,
2013-02-28 11:10:00,30.4,25.0,30.16,NNW,328,6.0,12.0,80,0.00,RA,,0.01,WeatherDisplay:10.37,2013-02-28 17:10:00,
2013-02-28 11:20:00,30.6,25.2,30.15,North,349,1.0,9.0,80,0.00,OVC,,0.01,WeatherDisplay:10.37,2013-02-28 17:20:00,
2013-02-28 11:30:00,30.8,25.4,30.16,NNW,330,6.0,12.0,80,0.00,OVC,,0.01,WeatherDisplay:10.37,2013-02-28 17:30:00,
2013-02-28 11:35:00,31.0,25.6,30.16,NNW,336,2.0,9.0,80,0.00,OVC,,0.01,WeatherDisplay:10.37,2013-02-28 17:35:00,
2013-02-28 11:40:00,31.0,25.2,30.16,NNW,339,5.0,9.0,79,0.00,OVC,,0.01,WeatherDisplay:10.37,2013-02-28 17:40:00,
2013-02-28 11:45:00,31.0,25.2,30.16,NNW,340,3.0,8.0,79,0.00,OVC,,0.01,WeatherDisplay:10.37,2013-02-28 17:45:00,
2013-02-28 11:55:00,31.1,25.4,30.16,NNW,347,2.0,6.0,79,0.00,OVC,,0.01,WeatherDisplay:10.37,2013-02-28 17:55:00,
2013-02-28 12:00:00,31.1,25.4,30.17,NNW,340,5.0,10.0,79,0.00,OVC,,0.01,WeatherDisplay:10.37,2013-02-28 18:00:00,
2013-02-28 12:10:00,31.2,25.7,30.17,NNW,335,2.0,8.0,80,0.00,OVC,,0.01,WeatherDisplay:10.37,2013-02-28 18:10:00,
2013-02-28 12:15:00,31.3,25.8,30.16,NNW,331,3.0,8.0,80,0.00,OVC,,0.01,WeatherDisplay:10.37,2013-02-28 18:15:00,
2013-02-28 12:20:00,31.3,25.5,30.17,NNW,328,5.0,13.0,79,0.00,OVC,,0.01,WeatherDisplay:10.37,2013-02-28 18:20:00,
2013-02-28 12:25:00,31.1,25.7,30.16,NW,326,6.0,13.0,80,0.00,OVC,,0.01,WeatherDisplay:10.37,2013-02-28 18:25:00,
2013-02-28 12:30:00,31.2,25.1,30.17,NNW,327,7.0,10.0,78,0.00,OVC,,0.01,WeatherDisplay:10.37,2013-02-28 18:30:00,
2013-02-28 12:35:00,31.3,25.2,30.16,NW,325,1.0,8.0,78,0.00,OVC,,0.01,WeatherDisplay:10.37,2013-02-28 18:35:00,
2013-02-28 12:45:00,31.4,25.4,30.16,NW,312,1.0,9.0,78,0.00,OVC,,0.01,WeatherDisplay:10.37,2013-02-28 18:45:00,
2013-02-28 12:50:00,31.5,25.4,30.16,NW,320,6.0,12.0,78,0.00,OVC,,0.01,WeatherDisplay:10.37,2013-02-28 18:50:00,
2013-02-28 13:00:00,31.4,25.4,30.16,NNW,327,5.0,10.0,78,0.00,OVC,,0.01,WeatherDisplay:10.37,2013-02-28 19:00:00,
2013-02-28 13:05:00,31.3,25.2,30.16,NNW,328,2.0,8.0,78,0.00,OVC,,0.01,WeatherDisplay:10.37,2013-02-28 19:05:00,
2013-02-28 13:10:00,31.4,25.3,30.16,NW,318,3.0,12.0,78,0.00,OVC,,0.01,WeatherDisplay:10.37,2013-02-28 19:10:00,
2013-02-28 13:20:00,31.3,25.2,30.16,NNW,328,3.0,9.0,78,0.00,OVC,,0.01,WeatherDisplay:10.37,2013-02-28 19:20:00,
2013-02-28 13:25:00,31.5,25.4,30.16,NW,323,2.0,6.0,78,0.00,OVC,,0.01,WeatherDisplay:10.37,2013-02-28 19:25:00,
2013-02-28 13:35:00,31.6,25.5,30.15,NW,311,1.0,6.0,78,0.00,OVC,,0.01,WeatherDisplay:10.37,2013-02-28 19:35:00,
2013-02-28 13:45:00,32.0,25.9,30.16,NNW,327,1.0,4.0,78,0.00,OVC,,0.01,WeatherDisplay:10.37,2013-02-28 19:45:00,
2013-02-28 13:55:00,31.9,25.5,30.15,NW,308,2.0,8.0,77,0.00,OVC,,0.01,WeatherDisplay:10.37,2013-02-28 19:55:00,
2013-02-28 14:00:00,31.7,25.6,30.15,NW,310,3.0,7.0,78,0.00,OVC,,0.01,WeatherDisplay:10.37,2013-02-28 20:00:00,
2013-02-28 14:05:00,31.6,25.5,30.15,NW,304,2.0,12.0,78,0.00,OVC,,0.01,WeatherDisplay:10.37,2013-02-28 20:05:00,
2013-02-28 14:10:00,31.3,25.2,30.16,WNW,303,3.0,8.0,78,0.00,OVC,,0.01,WeatherDisplay:10.37,2013-02-28 20:10:00,
2013-02-28 14:15:00,31.3,25.5,30.15,NW,319,3.0,9.0,79,0.00,OVC,,0.01,WeatherDisplay:10.37,2013-02-28 20:15:00,
2013-02-28 14:25:00,31.3,25.8,30.15,NNW,327,2.0,10.0,80,0.00,OVC,,0.01,WeatherDisplay:10.37,2013-02-28 20:25:00,
2013-02-28 14:35:00,31.3,25.8,30.16,NNW,328,5.0,9.0,80,0.00,OVC,,0.01,WeatherDisplay:10.37,2013-02-28 20:35:00,
2013-02-28 14:45:00,31.2,25.4,30.15,NW,326,3.0,8.0,79,0.00,OVC,,0.01,WeatherDisplay:10.37,2013-02-28 20:45:00,
2013-02-28 14:50:00,31.2,25.7,30.15,NW,325,2.0,6.0,80,0.00,OVC,,0.01,WeatherDisplay:10.37,2013-02-28 20:50:00,
2013-02-28 14:55:00,31.1,25.7,30.15,NNW,335,0.0,3.0,80,0.00,OVC,,0.01,WeatherDisplay:10.37,2013-02-28 20:55:00,
2013-02-28 15:05:00,31.2,26.0,30.15,NW,319,1.0,6.0,81,0.00,OVC,,0.01,WeatherDisplay:10.37,2013-02-28 21:05:00,
2013-02-28 15:10:00,31.0,25.6,30.15,NW,314,3.0,8.0,80,0.00,OVC,,0.01,WeatherDisplay:10.37,2013-02-28 21:10:00,
2013-02-28 15:15:00,30.9,25.4,30.15,NW,307,1.0,9.0,80,0.00,OVC,,0.01,WeatherDisplay:10.37,2013-02-28 21:15:00,
2013-02-28 15:20:00,30.7,25.6,30.15,NW,311,3.0,7.0,81,0.00,OVC,,0.01,WeatherDisplay:10.37,2013-02-28 21:20:00,
2013-02-28 15:25:00,30.7,25.6,30.16,NW,326,1.0,5.0,81,0.00,OVC,,0.01,WeatherDisplay:10.37,2013-02-28 21:25:00,
2013-02-28 15:30:00,30.9,25.8,30.15,NW,319,1.0,5.0,81,0.00,OVC,,0.01,WeatherDisplay:10.37,2013-02-28 21:30:00,
2013-02-28 15:40:00,31.0,25.9,30.16,NW,320,3.0,6.0,81,0.01,RA,,0.02,WeatherDisplay:10.37,2013-02-28 21:40:00,
2013-02-28 15:45:00,31.1,26.0,30.15,NW,322,1.0,9.0,81,0.00,RA,,0.02,WeatherDisplay:10.37,2013-02-28 21:45:00,
2013-02-28 15:50:00,31.2,26.0,30.15,WNW,295,2.0,8.0,81,0.00,OVC,,0.02,WeatherDisplay:10.37,2013-02-28 21:50:00,
2013-02-28 15:55:00,31.3,26.2,30.15,NW,307,3.0,8.0,81,0.00,OVC,,0.02,WeatherDisplay:10.37,2013-02-28 21:55:00,
2013-02-28 16:00:00,31.4,26.3,30.15,WNW,302,2.0,9.0,81,0.00,OVC,,0.02,WeatherDisplay:10.37,2013-02-28 22:00:00,
2013-02-28 16:05:00,31.3,25.9,30.15,WNW,303,1.0,7.0,80,0.00,OVC,,0.02,WeatherDisplay:10.37,2013-02-28 22:05:00,
2013-02-28 16:10:00,31.5,26.3,30.15,NW,314,1.0,4.0,81,0.00,OVC,,0.02,WeatherDisplay:10.37,2013-02-28 22:10:00,
2013-02-28 16:15:00,31.7,26.6,30.15,WNW,291,2.0,7.0,81,0.00,OVC,,0.02,WeatherDisplay:10.37,2013-02-28 22:15:00,
2013-02-28 16:25:00,31.6,26.1,30.15,WNW,292,0.0,7.0,80,0.00,OVC,,0.02,WeatherDisplay:10.37,2013-02-28 22:25:00,
2013-02-28 16:30:00,31.5,26.1,30.15,WNW,302,1.0,6.0,80,0.00,OVC,,0.02,WeatherDisplay:10.37,2013-02-28 22:30:00,
2013-02-28 16:35:00,31.3,25.8,30.15,NW,316,1.0,7.0,80,0.00,OVC,,0.02,WeatherDisplay:10.37,2013-02-28 22:35:00,
2013-02-28 16:45:00,31.2,25.7,30.15,WNW,286,1.0,5.0,80,0.00,OVC,,0.02,WeatherDisplay:10.37,2013-02-28 22:45:00,
2013-02-28 16:55:00,31.1,26.0,30.15,WNW,292,3.0,8.0,81,0.00,OVC,,0.02,WeatherDisplay:10.37,2013-02-28 22:55:00,
2013-02-28 17:05:00,31.0,25.9,30.16,WNW,299,0.0,7.0,81,0.00,OVC,,0.02,WeatherDisplay:10.37,2013-02-28 23:05:00,
2013-02-28 17:10:00,31.0,25.9,30.16,NW,306,2.0,6.0,81,0.00,OVC,,0.02,WeatherDisplay:10.37,2013-02-28 23:10:00,
2013-02-28 17:15:00,31.0,25.9,30.16,WNW,291,3.0,7.0,81,0.00,OVC,,0.02,WeatherDisplay:10.37,2013-02-28 23:15:00,
2013-02-28 17:25:00,30.7,25.6,30.15,WNW,289,3.0,8.0,81,0.00,OVC,,0.02,WeatherDisplay:10.37,2013-02-28 23:25:00,
2013-02-28 17:30:00,30.7,25.6,30.15,WNW,300,0.0,7.0,81,0.00,OVC,,0.02,WeatherDisplay:10.37,2013-02-28 23:30:00,
2013-02-28 17:35:00,30.7,25.6,30.16,NW,315,1.0,6.0,81,0.00,OVC,,0.02,WeatherDisplay:10.37,2013-02-28 23:35:00,
2013-02-28 17:45:00,30.5,25.0,30.16,WNW,295,1.0,6.0,80,0.00,OVC,,0.02,WeatherDisplay:10.37,2013-02-28 23:45:00,
2013-02-28 17:50:00,30.4,25.3,30.16,NW,305,1.0,5.0,81,0.00,OVC,,0.02,WeatherDisplay:10.37,2013-02-28 23:50:00,
2013-02-28 17:55:00,30.4,25.3,30.17,WNW,302,1.0,6.0,81,0.00,OVC,,0.02,WeatherDisplay:10.37,2013-02-28 23:55:00,
2013-02-28 18:05:00,30.3,25.2,30.17,WNW,296,2.0,6.0,81,0.00,OVC,,0.02,WeatherDisplay:10.37,2013-03-01 00:05:00,
2013-02-28 18:10:00,30.3,25.2,30.17,WNW,294,0.0,4.0,81,0.00,OVC,,0.02,WeatherDisplay:10.37,2013-03-01 00:10:00,
2013-02-28 18:15:00,30.3,25.2,30.17,NW,312,1.0,9.0,81,0.00,OVC,,0.02,WeatherDisplay:10.37,2013-03-01 00:15:00,
2013-02-28 18:25:00,30.1,25.0,30.16,NW,308,1.0,3.0,81,0.00,OVC,,0.02,WeatherDisplay:10.37,2013-03-01 00:25:00,
2013-02-28 18:30:00,30.1,25.0,30.17,WNW,295,0.0,4.0,81,0.00,OVC,,0.02,WeatherDisplay:10.37,2013-03-01 00:30:00,
2013-02-28 18:40:00,30.2,25.3,30.17,NW,304,0.0,6.0,82,0.00,OVC,,0.02,WeatherDisplay:10.37,2013-03-01 00:40:00,
2013-02-28 18:45:00,30.1,25.0,30.17,WNW,289,3.0,7.0,81,0.00,OVC,,0.02,WeatherDisplay:10.37,2013-03-01 00:45:00,
2013-02-28 18:50:00,30.0,24.9,30.17,NW,304,1.0,6.0,81,0.00,OVC,,0.02,WeatherDisplay:10.37,2013-03-01 00:50:00,
2013-02-28 18:55:00,30.0,25.2,30.17,NW,309,0.0,3.0,82,0.00,OVC,,0.02,WeatherDisplay:10.37,2013-03-01 00:55:00,
2013-02-28 19:05:00,30.0,25.2,30.17,WNW,298,0.0,5.0,82,0.00,OVC,,0.02,WeatherDisplay:10.37,2013-03-01 01:05:00,
2013-02-28 19:10:00,30.0,25.2,30.17,West,278,2.0,6.0,82,0.00,OVC,,0.02,WeatherDisplay:10.37,2013-03-01 01:10:00,
2013-02-28 19:15:00,30.0,25.2,30.17,WNW,286,2.0,8.0,82,0.00,OVC,,0.02,WeatherDisplay:10.37,2013-03-01 01:15:00,
2013-02-28 19:25:00,29.8,25.0,30.17,WNW,287,1.0,5.0,82,0.00,OVC,,0.02,WeatherDisplay:10.37,2013-03-01 01:25:00,
2013-02-28 19:35:00,29.8,25.3,30.18,WNW,282,1.0,6.0,83,0.00,OVC,,0.02,WeatherDisplay:10.37,2013-03-01 01:35:00,
2013-02-28 19:45:00,29.7,24.9,30.18,WNW,297,1.0,5.0,82,0.00,OVC,,0.02,WeatherDisplay:10.37,2013-03-01 01:45:00,
2013-02-28 19:55:00,29.7,25.1,30.18,WNW,289,2.0,7.0,83,0.00,OVC,,0.02,WeatherDisplay:10.37,2013-03-01 01:55:00,
2013-02-28 20:05:00,29.7,24.8,30.17,WNW,293,0.0,5.0,82,0.00,OVC,,0.02,WeatherDisplay:10.37,2013-03-01 02:05:00,
2013-02-28 20:10:00,29.7,25.2,30.17,NW,306,1.0,6.0,83,0.00,OVC,,0.02,WeatherDisplay:10.37,2013-03-01 02:10:00,
2013-02-28 20:15:00,29.7,24.9,30.17,WNW,300,2.0,5.0,82,0.00,OVC,,0.02,WeatherDisplay:10.37,2013-03-01 02:15:00,
2013-02-28 20:25:00,29.5,25.0,30.17,NW,312,1.0,6.0,83,0.00,OVC,,0.02,WeatherDisplay:10.37,2013-03-01 02:25:00,
2013-02-28 20:35:00,29.5,25.0,30.17,WNW,303,1.0,5.0,83,0.00,OVC,,0.02,WeatherDisplay:10.37,2013-03-01 02:35:00,
2013-02-28 20:45:00,29.4,24.9,30.17,NW,316,1.0,5.0,83,0.00,OVC,,0.02,WeatherDisplay:10.37,2013-03-01 02:45:00,
2013-02-28 20:50:00,29.4,24.8,30.17,NW,316,0.0,5.0,83,0.00,OVC,,0.02,WeatherDisplay:10.37,2013-03-01 02:50:00,
2013-02-28 20:55:00,29.4,24.9,30.18,NW,305,1.0,4.0,83,0.00,OVC,,0.02,WeatherDisplay:10.37,2013-03-01 02:55:00,
2013-02-28 21:05:00,29.3,24.8,30.17,NW,307,0.0,4.0,83,0.00,OVC,,0.02,WeatherDisplay:10.37,2013-03-01 03:05:00,
2013-02-28 21:10:00,29.4,24.9,30.18,NW,311,1.0,4.0,83,0.00,OVC,,0.02,WeatherDisplay:10.37,2013-03-01 03:10:00,
2013-02-28 21:15:00,29.4,24.9,30.18,WNW,284,2.0,5.0,83,0.00,OVC,,0.02,WeatherDisplay:10.37,2013-03-01 03:15:00,
2013-02-28 21:20:00,29.4,24.9,30.18,WNW,283,1.0,4.0,83,0.00,OVC,,0.02,WeatherDisplay:10.37,2013-03-01 03:20:00,
2013-02-28 21:30:00,29.3,24.8,30.18,WNW,292,0.0,4.0,83,0.00,OVC,,0.02,WeatherDisplay:10.37,2013-03-01 03:30:00,
2013-02-28 21:35:00,29.4,24.8,30.18,WNW,299,0.0,4.0,83,0.00,OVC,,0.02,WeatherDisplay:10.37,2013-03-01 03:35:00,
2013-02-28 21:45:00,29.4,24.9,30.18,WNW,292,1.0,4.0,83,0.00,OVC,,0.02,WeatherDisplay:10.37,2013-03-01 03:45:00,
2013-02-28 21:50:00,29.4,24.9,30.18,West,273,0.0,3.0,83,0.00,OVC,,0.02,WeatherDisplay:10.37,2013-03-01 03:50:00,
2013-02-28 21:55:00,29.4,24.8,30.18,West,275,0.0,4.0,83,0.00,OVC,,0.02,WeatherDisplay:10.37,2013-03-01 03:55:00,
2013-02-28 22:05:00,29.3,24.8,30.18,West,277,0.0,3.0,83,0.00,OVC,,0.02,WeatherDisplay:10.37,2013-03-01 04:05:00,
2013-02-28 22:10:00,29.2,24.7,30.18,West,280,0.0,3.0,83,0.00,OVC,,0.02,WeatherDisplay:10.37,2013-03-01 04:10:00,
2013-02-28 22:15:00,29.2,24.7,30.18,West,272,1.0,4.0,83,0.00,OVC,,0.02,WeatherDisplay:10.37,2013-03-01 04:15:00,
2013-02-28 22:25:00,29.2,24.7,30.18,West,275,0.0,4.0,83,0.00,OVC,,0.02,WeatherDisplay:10.37,2013-03-01 04:25:00,
2013-02-28 22:30:00,29.2,24.7,30.18,West,280,1.0,4.0,83,0.00,OVC,,0.02,WeatherDisplay:10.37,2013-03-01 04:30:00,
2013-02-28 22:35:00,29.2,25.0,30.18,WNW,290,2.0,5.0,84,0.00,OVC,,0.02,WeatherDisplay:10.37,2013-03-01 04:35:00,
2013-02-28 22:40:00,29.2,25.0,30.18,WNW,288,1.0,5.0,84,0.00,OVC,,0.02,WeatherDisplay:10.37,2013-03-01 04:40:00,
2013-02-28 22:45:00,29.2,24.7,30.17,WNW,288,1.0,5.0,83,0.00,OVC,,0.02,WeatherDisplay:10.37,2013-03-01 04:45:00,
2013-02-28 22:50:00,29.2,24.7,30.17,WNW,294,1.0,3.0,83,0.00,OVC,,0.02,WeatherDisplay:10.37,2013-03-01 04:50:00,
2013-02-28 22:55:00,29.2,25.0,30.17,WNW,287,0.0,4.0,84,0.00,OVC,,0.02,WeatherDisplay:10.37,2013-03-01 04:55:00,
2013-02-28 23:00:00,29.2,24.7,30.17,WNW,284,1.0,5.0,83,0.00,OVC,,0.02,WeatherDisplay:10.37,2013-03-01 05:00:00,
2013-02-28 23:05:00,29.2,24.7,30.17,WNW,293,0.0,4.0,83,0.00,OVC,,0.02,WeatherDisplay:10.37,2013-03-01 05:05:00,
2013-02-28 23:10:00,29.2,24.7,30.17,WNW,299,1.0,4.0,83,0.00,OVC,,0.02,WeatherDisplay:10.37,2013-03-01 05:10:00,
2013-02-28 23:15:00,29.2,24.7,30.17,WNW,298,1.0,3.0,83,0.00,OVC,,0.02,WeatherDisplay:10.37,2013-03-01 05:15:00,
2013-02-28 23:25:00,29.2,24.7,30.17,NW,310,2.0,4.0,83,0.00,OVC,,0.02,WeatherDisplay:10.37,2013-03-01 05:25:00,
2013-02-28 23:30:00,29.2,25.0,30.16,NW,313,2.0,6.0,84,0.00,OVC,,0.02,WeatherDisplay:10.37,2013-03-01 05:30:00,
2013-02-28 23:35:00,29.2,24.7,30.17,NNW,328,3.0,8.0,83,0.00,OVC,,0.02,WeatherDisplay:10.37,2013-03-01 05:35:00,
2013-02-28 23:45:00,29.2,24.7,30.16,NW,323,1.0,9.0,83,0.00,OVC,,0.02,WeatherDisplay:10.37,2013-03-01 05:45:00,
2013-02-28 23:50:00,29.1,24.3,30.17,NW,321,3.0,6.0,82,0.00,OVC,,0.02,WeatherDisplay:10.37,2013-03-01 05:50:00,
2013-02-28 23:55:00,29.1,24.3,30.17,NW,319,2.0,6.0,82,0.00,OVC,,0.02,WeatherDisplay:10.37,2013-03-01 05:55:00,